createdAt,value
2018-05-27T00:01:57.472Z,15.10
2018-05-27T00:04:24.056Z,15.00
2018-05-27T00:06:50.607Z,15.10
2018-05-27T00:09:17.114Z,15.10
2018-05-27T00:11:43.624Z,15.00
2018-05-27T00:14:10.839Z,14.90
2018-05-27T00:16:37.406Z,14.80
2018-05-27T00:19:03.968Z,14.80
2018-05-27T00:21:30.486Z,14.90
2018-05-27T00:23:57.795Z,14.90
2018-05-27T00:26:24.278Z,14.80
2018-05-27T00:28:51.480Z,14.80
2018-05-27T00:31:17.995Z,14.80
2018-05-27T00:33:44.472Z,14.80
2018-05-27T00:36:11.057Z,14.70
2018-05-27T00:38:37.534Z,14.70
2018-05-27T00:41:04.002Z,14.80
2018-05-27T00:43:31.282Z,14.80
2018-05-27T00:45:57.773Z,14.70
2018-05-27T00:48:24.345Z,14.80
2018-05-27T00:50:50.790Z,14.80
2018-05-27T00:53:17.529Z,14.60
2018-05-27T00:55:44.010Z,14.50
2018-05-27T00:58:10.494Z,14.60
2018-05-27T01:00:37.110Z,14.60
2018-05-27T01:03:03.570Z,14.60
2018-05-27T01:05:30.174Z,14.50
2018-05-27T01:07:57.514Z,14.50
2018-05-27T01:10:24.773Z,14.50
2018-05-27T01:12:51.997Z,14.60
2018-05-27T01:15:18.473Z,14.50
2018-05-27T01:17:44.947Z,14.60
2018-05-27T01:20:11.410Z,14.50
2018-05-27T01:22:37.854Z,14.40
2018-05-27T01:25:05.095Z,14.30
2018-05-27T01:27:32.322Z,14.40
2018-05-27T01:29:59.529Z,14.30
2018-05-27T01:32:26.041Z,14.30
2018-05-27T01:34:53.436Z,14.30
2018-05-27T01:37:19.935Z,14.30
2018-05-27T01:39:47.137Z,14.30
2018-05-27T01:42:13.674Z,14.30
2018-05-27T01:44:40.123Z,14.40
2018-05-27T01:47:06.701Z,14.30
2018-05-27T01:49:34.010Z,14.20
2018-05-27T01:52:00.497Z,14.00
2018-05-27T01:54:27.016Z,14.10
2018-05-27T01:56:54.234Z,14.00
2018-05-27T01:59:20.698Z,14.00
2018-05-27T02:01:47.978Z,14.00
2018-05-27T02:04:14.435Z,14.00
2018-05-27T02:06:40.918Z,14.00
2018-05-27T02:09:08.102Z,13.90
2018-05-27T02:11:34.606Z,13.90
2018-05-27T02:14:01.786Z,13.70
2018-05-27T02:16:28.314Z,13.70
2018-05-27T02:18:54.777Z,13.70
2018-05-27T02:21:21.306Z,13.70
2018-05-27T02:23:47.746Z,13.80
2018-05-27T02:26:14.220Z,13.80
2018-05-27T02:28:43.560Z,13.90
2018-05-27T02:31:10.227Z,13.90
2018-05-27T02:33:36.761Z,13.90
2018-05-27T02:36:03.253Z,13.80
2018-05-27T02:38:29.743Z,13.70
2018-05-27T02:40:56.239Z,13.50
2018-05-27T02:43:22.711Z,13.70
2018-05-27T02:45:49.194Z,13.70
2018-05-27T02:48:15.752Z,13.60
2018-05-27T02:50:42.251Z,13.70
2018-05-27T02:53:08.735Z,13.50
2018-05-27T02:55:35.287Z,13.30
2018-05-27T02:58:01.787Z,13.00
2018-05-27T03:00:28.287Z,13.20
2018-05-27T03:02:54.782Z,13.30
2018-05-27T03:05:21.334Z,13.30
2018-05-27T03:07:47.796Z,13.30
2018-05-27T03:10:14.283Z,13.50
2018-05-27T03:12:40.718Z,13.50
2018-05-27T03:15:07.253Z,13.50
2018-05-27T03:17:33.789Z,13.50
2018-05-27T03:20:00.424Z,13.50
2018-05-27T03:22:26.944Z,13.60
2018-05-27T03:24:53.478Z,13.70
2018-05-27T03:27:20.037Z,13.70
2018-05-27T03:29:46.563Z,13.80
2018-05-27T03:32:13.073Z,13.80
2018-05-27T03:34:39.507Z,13.80
2018-05-27T03:37:06.069Z,13.90
2018-05-27T03:39:32.502Z,14.00
2018-05-27T03:41:59.007Z,13.90
2018-05-27T03:44:25.485Z,13.90
2018-05-27T03:46:52.042Z,14.00
2018-05-27T03:49:19.282Z,14.10
2018-05-27T03:51:46.532Z,14.00
2018-05-27T03:54:13.758Z,14.00
2018-05-27T03:56:40.218Z,14.00
2018-05-27T03:59:07.466Z,14.10
2018-05-27T04:01:33.913Z,14.00
2018-05-27T04:04:13.398Z,14.20
2018-05-27T04:06:52.026Z,14.20
2018-05-27T04:09:18.525Z,14.30
2018-05-27T04:11:45.018Z,14.40
2018-05-27T04:14:11.474Z,14.50
2018-05-27T04:16:38.701Z,14.70
2018-05-27T04:19:05.250Z,14.70
2018-05-27T04:21:38.772Z,14.90
2018-05-27T04:24:05.229Z,15.00
2018-05-27T04:26:31.741Z,15.20
2018-05-27T04:28:58.227Z,15.30
2018-05-27T04:31:24.669Z,15.50
2018-05-27T04:33:51.928Z,15.90
2018-05-27T04:36:18.488Z,15.90
2018-05-27T04:38:45.817Z,16.10
2018-05-27T04:41:12.271Z,15.90
2018-05-27T04:43:39.638Z,16.60
2018-05-27T04:46:06.144Z,16.50
2018-05-27T04:48:32.631Z,16.70
2018-05-27T04:50:59.117Z,16.90
2018-05-27T04:53:26.573Z,17.10
2018-05-27T04:55:53.054Z,17.40
2018-05-27T04:58:19.558Z,17.40
2018-05-27T05:00:46.807Z,17.70
2018-05-27T05:03:14.053Z,18.00
2018-05-27T05:05:41.247Z,18.40
2018-05-27T05:08:07.835Z,18.30
2018-05-27T05:10:35.117Z,18.80
2018-05-27T05:13:01.637Z,18.70
2018-05-27T05:15:28.884Z,19.30
2018-05-27T05:17:56.145Z,19.50
2018-05-27T05:20:23.362Z,19.50
2018-05-27T05:22:50.669Z,19.60
2018-05-27T05:25:17.100Z,19.50
2018-05-27T05:27:43.681Z,19.70
2018-05-27T05:30:10.117Z,19.80
2018-05-27T05:32:36.634Z,19.90
2018-05-27T05:35:03.162Z,20.00
2018-05-27T05:37:29.697Z,20.40
2018-05-27T05:39:56.171Z,20.80
2018-05-27T05:42:23.399Z,20.90
2018-05-27T05:44:50.046Z,20.90
2018-05-27T05:47:16.509Z,20.80
2018-05-27T05:49:43.730Z,20.60
2018-05-27T05:52:10.233Z,20.50
2018-05-27T05:54:36.764Z,20.50
2018-05-27T05:57:03.260Z,20.60
2018-05-27T05:59:30.521Z,20.60
2018-05-27T06:01:57.049Z,20.60
2018-05-27T06:04:23.591Z,20.80
2018-05-27T06:06:50.096Z,20.90
2018-05-27T06:09:16.581Z,21.20
2018-05-27T06:11:43.160Z,21.30
2018-05-27T06:14:09.622Z,21.50
2018-05-27T06:16:36.929Z,21.30
2018-05-27T06:19:03.444Z,21.20
2018-05-27T06:21:29.943Z,21.30
2018-05-27T06:23:57.267Z,20.90
2018-05-27T06:26:23.781Z,20.90
2018-05-27T06:28:50.364Z,20.90
2018-05-27T06:31:17.740Z,20.90
2018-05-27T06:33:44.288Z,20.90
2018-05-27T06:36:10.769Z,20.90
2018-05-27T06:38:37.386Z,21.20
2018-05-27T06:41:03.878Z,21.50
2018-05-27T06:43:30.389Z,21.50
2018-05-27T06:45:57.597Z,21.60
2018-05-27T06:48:24.109Z,21.60
2018-05-27T06:50:50.589Z,22.00
2018-05-27T06:53:17.156Z,22.30
2018-05-27T06:55:43.599Z,22.60
2018-05-27T06:58:10.062Z,22.80
2018-05-27T07:00:36.498Z,23.00
2018-05-27T07:03:03.031Z,23.50
2018-05-27T07:05:29.545Z,24.00
2018-05-27T07:07:56.015Z,24.30
2018-05-27T07:10:22.496Z,24.80
2018-05-27T07:12:49.691Z,25.40
2018-05-27T07:15:16.186Z,25.40
2018-05-27T07:17:42.780Z,25.10
2018-05-27T07:20:09.307Z,25.10
2018-05-27T07:22:35.811Z,25.50
2018-05-27T07:25:02.334Z,25.20
2018-05-27T07:27:28.810Z,25.20
2018-05-27T07:29:55.283Z,25.10
2018-05-27T07:32:22.481Z,25.50
2018-05-27T07:34:49.005Z,25.50
2018-05-27T07:37:15.459Z,25.90
2018-05-27T07:39:41.912Z,26.50
2018-05-27T07:42:08.378Z,27.10
2018-05-27T07:44:35.555Z,28.70
2018-05-27T07:47:02.110Z,28.60
2018-05-27T07:49:28.584Z,29.10
2018-05-27T07:51:55.822Z,30.50
2018-05-27T07:54:22.270Z,30.50
2018-05-27T07:56:49.470Z,31.60
2018-05-27T07:59:15.930Z,31.50
2018-05-27T08:01:43.232Z,31.50
2018-05-27T08:04:09.774Z,31.50
2018-05-27T08:06:36.399Z,31.80
2018-05-27T08:09:02.966Z,31.90
2018-05-27T08:11:29.394Z,32.50
2018-05-27T08:13:55.939Z,32.50
2018-05-27T08:16:22.400Z,32.40
2018-05-27T08:18:48.949Z,32.20
2018-05-27T08:21:16.307Z,31.80
2018-05-27T08:23:43.493Z,30.80
2018-05-27T08:26:09.941Z,30.80
2018-05-27T08:28:36.550Z,30.10
2018-05-27T08:31:03.001Z,30.00
2018-05-27T08:33:29.538Z,29.70
2018-05-27T08:35:55.962Z,28.90
2018-05-27T08:38:22.430Z,28.50
2018-05-27T08:40:48.917Z,28.10
2018-05-27T08:43:15.647Z,28.00
2018-05-27T08:45:42.934Z,27.70
2018-05-27T08:48:09.356Z,27.70
2018-05-27T08:50:35.846Z,27.80
2018-05-27T08:53:02.311Z,27.70
2018-05-27T08:55:28.754Z,27.30
2018-05-27T08:57:55.277Z,27.60
2018-05-27T09:00:21.795Z,27.80
2018-05-27T09:02:48.975Z,27.40
2018-05-27T09:05:15.533Z,27.40
2018-05-27T09:07:42.026Z,27.20
2018-05-27T09:10:09.284Z,27.10
2018-05-27T09:12:35.807Z,27.10
2018-05-27T09:15:02.451Z,27.00
2018-05-27T09:17:28.946Z,27.00
2018-05-27T09:22:52.086Z,27.30
2018-05-27T09:25:18.608Z,27.30
2018-05-27T09:27:45.149Z,27.10
2018-05-27T09:30:11.877Z,26.90
2018-05-27T09:32:38.494Z,26.90
2018-05-27T09:35:05.722Z,27.00
2018-05-27T09:37:32.268Z,27.00
2018-05-27T09:39:58.863Z,27.60
2018-05-27T09:42:25.352Z,27.80
2018-05-27T09:44:52.567Z,27.60
2018-05-27T09:47:19.034Z,27.50
2018-05-27T09:49:46.335Z,27.80
2018-05-27T09:52:12.863Z,27.80
2018-05-27T09:54:39.346Z,28.00
2018-05-27T09:57:05.819Z,28.10
2018-05-27T09:59:32.285Z,28.40
2018-05-27T10:01:58.738Z,28.30
2018-05-27T10:04:25.342Z,28.30
2018-05-27T10:06:51.853Z,28.20
2018-05-27T10:09:18.783Z,28.10
2018-05-27T10:11:46.276Z,28.20
2018-05-27T10:14:12.750Z,28.20
2018-05-27T10:16:39.209Z,28.10
2018-05-27T10:19:06.568Z,28.50
2018-05-27T10:21:33.771Z,28.50
2018-05-27T10:24:00.279Z,28.50
2018-05-27T10:26:26.850Z,28.20
2018-05-27T10:28:53.353Z,28.30
2018-05-27T10:31:19.849Z,28.10
2018-05-27T10:33:47.193Z,28.50
2018-05-27T10:36:13.630Z,28.50
2018-05-27T10:38:40.821Z,28.60
2018-05-27T10:41:07.345Z,28.60
2018-05-27T10:43:33.817Z,28.90
2018-05-27T10:46:00.382Z,29.90
2018-05-27T10:48:27.587Z,31.30
2018-05-27T10:50:54.142Z,31.30
2018-05-27T10:53:20.614Z,32.10
2018-05-27T10:58:45.023Z,32.30
2018-05-27T11:01:12.317Z,31.80
2018-05-27T11:03:38.745Z,31.80
2018-05-27T11:06:07.200Z,32.00
2018-05-27T11:08:33.686Z,31.90
2018-05-27T11:11:00.245Z,31.90
2018-05-27T11:13:27.522Z,32.00
2018-05-27T11:15:53.970Z,32.10
2018-05-27T11:18:20.480Z,32.50
2018-05-27T11:20:47.850Z,32.80
2018-05-27T11:23:14.342Z,32.80
2018-05-27T11:25:40.868Z,31.20
2018-05-27T11:28:07.474Z,30.70
2018-05-27T11:30:33.958Z,30.80
2018-05-27T11:33:00.432Z,30.60
2018-05-27T11:35:26.949Z,31.70
2018-05-27T11:37:53.599Z,33.00
2018-05-27T11:40:20.077Z,33.40
2018-05-27T11:42:46.538Z,34.30
2018-05-27T11:45:13.722Z,32.70
2018-05-27T11:47:40.156Z,32.70
2018-05-27T11:50:06.623Z,32.90
2018-05-27T11:52:33.072Z,33.60
2018-05-27T11:54:59.560Z,34.50
2018-05-27T11:57:26.017Z,35.10
2018-05-27T11:59:52.690Z,34.80
2018-05-27T12:02:19.965Z,35.00
2018-05-27T12:04:46.407Z,35.00
2018-05-27T12:07:13.003Z,35.40
2018-05-27T12:09:39.547Z,35.20
2018-05-27T12:12:05.981Z,35.70
2018-05-27T12:14:33.192Z,34.00
2018-05-27T12:16:59.709Z,33.90
2018-05-27T12:19:26.264Z,33.50
2018-05-27T12:21:52.794Z,32.80
2018-05-27T12:24:19.324Z,33.50
2018-05-27T12:26:45.843Z,33.70
2018-05-27T12:29:12.368Z,34.10
2018-05-27T12:31:38.813Z,33.70
2018-05-27T12:34:05.298Z,34.00
2018-05-27T12:36:31.769Z,34.70
2018-05-27T12:38:58.203Z,36.30
2018-05-27T12:41:24.653Z,37.90
2018-05-27T12:43:51.176Z,38.20
2018-05-27T12:46:17.722Z,39.40
2018-05-27T12:48:44.297Z,39.50
2018-05-27T12:51:10.769Z,39.40
2018-05-27T12:53:37.301Z,39.40
2018-05-27T12:56:04.535Z,39.80
2018-05-27T12:58:31.858Z,39.20
2018-05-27T13:00:58.349Z,39.20
2018-05-27T13:03:24.914Z,38.50
2018-05-27T13:05:51.432Z,39.70
2018-05-27T13:08:24.967Z,39.70
2018-05-27T13:10:51.399Z,39.50
2018-05-27T13:13:18.018Z,40.00
2018-05-27T13:15:44.506Z,39.30
2018-05-27T13:18:11.766Z,40.20
2018-05-27T13:20:38.979Z,40.00
2018-05-27T13:23:05.469Z,39.90
2018-05-27T13:25:31.942Z,40.00
2018-05-27T13:27:58.412Z,39.40
2018-05-27T13:30:25.637Z,40.40
2018-05-27T13:32:52.090Z,40.40
2018-05-27T13:35:19.359Z,38.00
2018-05-27T13:37:46.763Z,38.60
2018-05-27T13:40:13.383Z,38.60
2018-05-27T13:42:39.809Z,38.30
2018-05-27T13:45:06.348Z,38.20
2018-05-27T13:47:32.729Z,36.50
2018-05-27T13:49:59.174Z,36.00
2018-05-27T13:52:25.710Z,35.10
2018-05-27T13:54:53.051Z,35.10
2018-05-27T13:57:19.549Z,35.10
2018-05-27T13:59:45.997Z,34.70
2018-05-27T14:02:12.482Z,35.40
2018-05-27T14:04:38.947Z,35.90
2018-05-27T14:10:02.122Z,36.90
2018-05-27T14:12:28.709Z,36.80
2018-05-27T14:14:55.895Z,35.60
2018-05-27T14:17:22.480Z,35.60
2018-05-27T14:19:48.958Z,34.80
2018-05-27T14:22:15.503Z,33.70
2018-05-27T14:24:42.058Z,33.10
2018-05-27T14:27:08.508Z,32.60
2018-05-27T14:29:35.052Z,32.40
2018-05-27T14:32:01.522Z,32.10
2018-05-27T14:34:28.023Z,31.70
2018-05-27T14:36:54.492Z,31.40
2018-05-27T14:39:21.040Z,31.50
2018-05-27T14:41:47.532Z,30.10
2018-05-27T14:44:14.140Z,29.00
2018-05-27T14:46:40.583Z,27.90
2018-05-27T14:49:07.334Z,26.60
2018-05-27T14:51:33.759Z,26.30
2018-05-27T14:54:00.233Z,26.30
2018-05-27T14:56:26.738Z,26.60
2018-05-27T14:58:53.236Z,26.60
2018-05-27T15:01:19.765Z,26.70
2018-05-27T15:03:46.291Z,26.70
2018-05-27T15:06:12.970Z,26.80
2018-05-27T15:08:39.421Z,26.60
2018-05-27T15:11:07.780Z,26.50
2018-05-27T15:13:34.231Z,26.30
2018-05-27T15:16:00.747Z,26.60
2018-05-27T15:18:27.341Z,26.50
2018-05-27T15:20:54.526Z,26.50
2018-05-27T15:23:21.038Z,26.50
2018-05-27T15:25:47.498Z,26.60
2018-05-27T15:28:14.014Z,26.80
2018-05-27T15:30:40.490Z,27.00
2018-05-27T15:33:07.711Z,27.50
2018-05-27T15:35:34.322Z,27.50
2018-05-27T15:38:00.799Z,27.80
2018-05-27T15:40:27.346Z,28.20
2018-05-27T15:42:53.802Z,28.40
2018-05-27T15:45:20.398Z,28.40
2018-05-27T15:47:46.874Z,28.00
2018-05-27T15:50:13.375Z,28.30
2018-05-27T15:52:39.983Z,28.40
2018-05-27T15:55:06.455Z,28.20
2018-05-27T15:57:32.968Z,28.10
2018-05-27T15:59:59.443Z,27.80
2018-05-27T16:02:26.685Z,28.10
2018-05-27T16:04:53.941Z,28.00
2018-05-27T16:07:21.134Z,28.00
2018-05-27T16:09:47.643Z,28.00
2018-05-27T16:12:14.226Z,28.00
2018-05-27T16:14:40.722Z,28.30
2018-05-27T16:17:07.287Z,28.40
2018-05-27T16:19:33.742Z,28.40
2018-05-27T16:22:00.350Z,28.40
2018-05-27T16:24:27.009Z,28.00
2018-05-27T16:26:53.981Z,27.50
2018-05-27T16:29:21.327Z,26.90
2018-05-27T16:31:48.018Z,26.90
2018-05-27T16:34:15.388Z,26.70
2018-05-27T16:36:41.897Z,26.50
2018-05-27T16:39:09.731Z,26.40
2018-05-27T16:41:36.945Z,26.20
2018-05-27T16:44:03.541Z,26.20
2018-05-27T16:46:30.980Z,26.20
2018-05-27T16:48:57.525Z,26.20
2018-05-27T16:51:23.992Z,26.30
2018-05-27T16:56:46.749Z,26.30
2018-05-27T16:59:13.232Z,26.40
2018-05-27T17:01:40.458Z,26.00
2018-05-27T17:04:07.073Z,26.00
2018-05-27T17:09:30.090Z,25.80
2018-05-27T17:11:56.703Z,25.90
2018-05-27T17:14:23.217Z,25.80
2018-05-27T17:16:49.810Z,25.90
2018-05-27T17:19:16.481Z,25.80
2018-05-27T17:21:43.116Z,25.80
2018-05-27T17:24:09.700Z,25.60
2018-05-27T17:26:36.251Z,25.50
2018-05-27T17:31:58.638Z,25.40
2018-05-27T17:34:25.243Z,25.30
2018-05-27T17:36:54.904Z,25.20
2018-05-27T17:39:25.267Z,25.20
2018-05-27T17:41:52.527Z,25.20
2018-05-27T17:44:19.146Z,25.20
2018-05-27T17:46:45.641Z,25.10
2018-05-27T17:49:12.513Z,25.10
2018-05-27T17:51:39.113Z,25.10
2018-05-27T17:54:05.608Z,25.00
2018-05-27T17:56:32.958Z,24.80
2018-05-27T17:59:00.568Z,24.80
2018-05-27T18:01:27.069Z,24.80
2018-05-27T18:03:54.300Z,24.70
2018-05-27T18:06:20.933Z,24.70
2018-05-27T18:08:47.451Z,24.60
2018-05-27T18:11:13.978Z,24.50
2018-05-27T18:13:40.606Z,24.40
2018-05-27T18:16:07.108Z,24.30
2018-05-27T18:18:34.506Z,24.00
2018-05-27T18:21:00.997Z,24.00
2018-05-27T18:23:27.671Z,24.00
2018-05-27T18:25:54.431Z,23.90
2018-05-27T18:28:21.017Z,23.80
2018-05-27T18:30:47.741Z,23.80
2018-05-27T18:33:15.105Z,23.70
2018-05-27T18:35:42.527Z,23.70
2018-05-27T18:38:09.043Z,23.60
2018-05-27T18:40:35.593Z,23.70
2018-05-27T18:43:02.317Z,23.50
2018-05-27T18:45:29.267Z,23.30
2018-05-27T18:47:56.188Z,23.10
2018-05-27T18:50:22.874Z,23.00
2018-05-27T18:52:50.294Z,22.80
2018-05-27T18:55:17.886Z,22.80
2018-05-27T18:57:44.485Z,22.60
2018-05-27T19:00:11.058Z,22.60
2018-05-27T19:02:37.749Z,22.50
2018-05-27T19:05:05.379Z,22.40
2018-05-27T19:07:32.837Z,22.20
2018-05-27T19:10:00.191Z,22.20
2018-05-27T19:12:27.750Z,22.10
2018-05-27T19:14:54.323Z,22.10
2018-05-27T19:17:21.159Z,22.00
2018-05-27T19:19:47.826Z,22.00
2018-05-27T19:22:14.358Z,22.00
2018-05-27T19:24:40.985Z,21.90
2018-05-27T19:27:07.480Z,21.80
2018-05-27T19:29:34.788Z,21.60
2018-05-27T19:32:01.506Z,21.60
2018-05-27T19:34:28.046Z,21.50
2018-05-27T19:36:54.746Z,21.40
2018-05-27T19:39:22.304Z,21.00
2018-05-27T19:41:48.843Z,20.90
2018-05-27T19:44:16.270Z,20.50
2018-05-27T19:46:42.804Z,20.50
2018-05-27T19:49:10.769Z,20.50
2018-05-27T19:51:37.591Z,20.40
2018-05-27T19:54:04.259Z,20.50
2018-05-27T19:56:31.053Z,20.50
2018-05-27T19:58:57.755Z,20.40
2018-05-27T20:01:25.186Z,20.30
2018-05-27T20:03:51.785Z,20.30
2018-05-27T20:06:18.330Z,20.20
2018-05-27T20:08:45.115Z,20.20
2018-05-27T20:11:11.634Z,20.10
2018-05-27T20:13:38.101Z,20.10
2018-05-27T20:16:05.395Z,19.90
2018-05-27T20:18:31.946Z,19.90
2018-05-27T20:20:58.552Z,19.70
2018-05-27T20:23:25.041Z,19.60
2018-05-27T20:25:51.559Z,19.40
2018-05-27T20:28:18.101Z,19.50
2018-05-27T20:30:44.638Z,19.30
2018-05-27T20:33:11.281Z,19.20
2018-05-27T20:35:37.841Z,19.00
2018-05-27T20:38:05.193Z,18.90
2018-05-27T20:40:32.536Z,18.90
2018-05-27T20:42:59.811Z,18.90
2018-05-27T20:45:26.332Z,18.90
2018-05-27T20:47:53.698Z,18.70
2018-05-27T20:50:20.226Z,18.70
2018-05-27T20:52:47.559Z,18.60
2018-05-27T20:55:14.376Z,18.60
2018-05-27T20:57:40.867Z,18.50
2018-05-27T21:00:07.394Z,18.50
2018-05-27T21:02:34.798Z,18.30
2018-05-27T21:05:01.310Z,18.30
2018-05-27T21:07:27.971Z,18.20
2018-05-27T21:09:54.486Z,18.20
2018-05-27T21:12:21.010Z,18.20
2018-05-27T21:14:47.527Z,18.20
2018-05-27T21:17:14.969Z,18.00
2018-05-27T21:19:41.519Z,17.90
2018-05-27T21:22:08.803Z,17.80
2018-05-27T21:24:35.367Z,17.80
2018-05-27T21:27:01.885Z,17.70
2018-05-27T21:29:28.452Z,17.70
2018-05-27T21:31:54.949Z,17.70
2018-05-27T21:34:21.573Z,17.80
2018-05-27T21:36:48.080Z,17.80
2018-05-27T21:39:15.324Z,17.60
2018-05-27T21:41:42.613Z,17.50
2018-05-27T21:44:09.200Z,17.50
2018-05-27T21:46:35.938Z,17.50
2018-05-27T21:49:02.445Z,17.50
2018-05-27T21:51:28.942Z,17.40
2018-05-27T21:53:55.446Z,17.30
2018-05-27T21:56:22.152Z,17.30
2018-05-27T21:58:48.768Z,17.20
2018-05-27T22:01:15.252Z,17.10
2018-05-27T22:03:42.547Z,17.10
2018-05-27T22:06:09.212Z,17.10
2018-05-27T22:08:36.067Z,17.00
2018-05-27T22:11:02.556Z,16.90
2018-05-27T22:13:29.226Z,16.90
2018-05-27T22:15:55.699Z,16.90
2018-05-27T22:18:22.320Z,17.00
2018-05-27T22:20:48.798Z,17.00
2018-05-27T22:23:15.409Z,16.80
2018-05-27T22:25:41.870Z,16.70
2018-05-27T22:28:08.376Z,16.60
2018-05-27T22:30:35.657Z,16.60
2018-05-27T22:33:02.162Z,16.60
2018-05-27T22:35:29.409Z,16.50
2018-05-27T22:37:55.923Z,16.50
2018-05-27T22:40:22.459Z,16.50
2018-05-27T22:42:48.999Z,16.50
2018-05-27T22:45:15.526Z,16.40
2018-05-27T22:47:42.088Z,16.30
2018-05-27T22:50:08.600Z,16.40
2018-05-27T22:52:35.070Z,16.40
2018-05-27T22:55:02.342Z,16.30
2018-05-27T22:57:28.871Z,16.30
2018-05-27T22:59:55.471Z,16.30
2018-05-27T23:02:21.941Z,16.30
2018-05-27T23:04:49.153Z,16.20
2018-05-27T23:07:15.722Z,16.20
2018-05-27T23:09:43.002Z,16.10
2018-05-27T23:12:10.041Z,16.10
2018-05-27T23:14:36.524Z,16.10
2018-05-27T23:17:03.102Z,16.00
2018-05-27T23:19:29.601Z,15.90
2018-05-27T23:21:56.283Z,15.90
2018-05-27T23:24:22.807Z,15.90
2018-05-27T23:26:49.368Z,15.90
2018-05-27T23:29:15.869Z,15.90
2018-05-27T23:31:43.217Z,15.80
2018-05-27T23:34:10.447Z,15.80
2018-05-27T23:36:37.231Z,15.70
2018-05-27T23:39:03.782Z,15.70
2018-05-27T23:41:30.292Z,15.80
2018-05-27T23:43:56.889Z,15.80
2018-05-27T23:46:23.375Z,15.70
2018-05-27T23:48:49.986Z,15.70
2018-05-27T23:51:17.266Z,15.70
2018-05-27T23:53:43.813Z,15.70
2018-05-27T23:56:10.452Z,15.60
2018-05-27T23:58:37.026Z,15.30
